createdAt,value
2023-04-28T00:01:46.486Z,96724.00
2023-04-28T00:04:14.082Z,96720.00
2023-04-28T00:06:41.646Z,96725.00
2023-04-28T00:09:11.040Z,96724.00
2023-04-28T00:11:38.642Z,96716.00
2023-04-28T00:14:06.172Z,96718.00
2023-04-28T00:16:33.483Z,96708.00
2023-04-28T00:19:00.877Z,96708.00
2023-04-28T00:21:28.661Z,96709.00
2023-04-28T00:23:55.874Z,96703.00
2023-04-28T00:26:23.030Z,96697.00
2023-04-28T00:28:50.334Z,96690.00
2023-04-28T00:31:17.705Z,96696.00
2023-04-28T00:33:45.383Z,96694.00
2023-04-28T00:36:12.658Z,96686.00
2023-04-28T00:38:39.866Z,96677.00
2023-04-28T00:41:07.262Z,96681.00
2023-04-28T00:43:45.508Z,96675.00
2023-04-28T00:46:28.635Z,96681.00
2023-04-28T00:48:56.572Z,96686.00
2023-04-28T00:51:23.882Z,96677.00
2023-04-28T00:53:51.525Z,96691.00
2023-04-28T00:56:18.727Z,96690.00
2023-04-28T00:58:45.885Z,96688.00
2023-04-28T01:01:13.086Z,96676.00
2023-04-28T01:03:41.472Z,96684.00
2023-04-28T01:06:09.564Z,96676.00
2023-04-28T01:08:38.298Z,96679.00
2023-04-28T01:11:06.848Z,96697.00
2023-04-28T01:13:34.032Z,96693.00
2023-04-28T01:16:01.564Z,96692.00
2023-04-28T01:18:28.721Z,96693.00
2023-04-28T01:20:56.182Z,96699.00
2023-04-28T01:23:23.382Z,96706.00
2023-04-28T01:25:50.711Z,96719.00
2023-04-28T01:28:17.903Z,96721.00
2023-04-28T01:30:45.284Z,96722.00
2023-04-28T01:33:28.274Z,96711.00
2023-04-28T01:36:20.570Z,96720.00
2023-04-28T01:38:47.818Z,96722.00
2023-04-28T01:41:15.088Z,96725.00
2023-04-28T01:43:43.795Z,96736.00
2023-04-28T01:46:11.387Z,96735.00
2023-04-28T01:48:38.605Z,96749.00
2023-04-28T01:51:05.838Z,96760.00
2023-04-28T01:53:32.996Z,96763.00
2023-04-28T01:56:00.159Z,96757.00
2023-04-28T01:58:27.385Z,96759.00
2023-04-28T02:00:54.664Z,96758.00
2023-04-28T02:03:22.040Z,96762.00
2023-04-28T02:05:50.071Z,96756.00
2023-04-28T02:08:17.242Z,96760.00
2023-04-28T02:10:45.111Z,96756.00
2023-04-28T02:13:12.387Z,96754.00
2023-04-28T02:15:43.020Z,96752.00
2023-04-28T02:18:11.038Z,96756.00
2023-04-28T02:20:38.474Z,96745.00
2023-04-28T02:23:05.707Z,96743.00
2023-04-28T02:25:32.898Z,96745.00
2023-04-28T02:28:00.107Z,96732.00
2023-04-28T02:30:27.466Z,96723.00
2023-04-28T02:32:54.721Z,96717.00
2023-04-28T02:35:22.060Z,96720.00
2023-04-28T02:37:49.222Z,96718.00
2023-04-28T02:40:16.443Z,96719.00
2023-04-28T02:42:43.602Z,96726.00
2023-04-28T02:45:11.285Z,96721.00
2023-04-28T02:47:38.554Z,96731.00
2023-04-28T02:50:06.516Z,96734.00
2023-04-28T02:52:33.707Z,96729.00
2023-04-28T02:55:01.052Z,96719.00
2023-04-28T02:57:28.236Z,96719.00
2023-04-28T02:59:55.504Z,96723.00
2023-04-28T03:02:23.094Z,96715.00
2023-04-28T03:04:50.549Z,96717.00
2023-04-28T03:07:17.718Z,96715.00
2023-04-28T03:09:46.264Z,96702.00
2023-04-28T03:12:13.456Z,96701.00
2023-04-28T03:14:40.818Z,96697.00
2023-04-28T03:17:08.018Z,96695.00
2023-04-28T03:19:35.187Z,96695.00
2023-04-28T03:22:02.364Z,96688.00
2023-04-28T03:24:29.864Z,96695.00
2023-04-28T03:26:57.192Z,96684.00
2023-04-28T03:29:25.535Z,96689.00
2023-04-28T03:31:52.813Z,96694.00
2023-04-28T03:34:20.045Z,96682.00
2023-04-28T03:36:47.275Z,96678.00
2023-04-28T03:39:14.499Z,96681.00
2023-04-28T03:41:41.752Z,96678.00
2023-04-28T03:44:08.886Z,96665.00
2023-04-28T03:46:36.153Z,96670.00
2023-04-28T03:49:03.371Z,96666.00
2023-04-28T03:51:31.892Z,96668.00
2023-04-28T03:53:59.194Z,96661.00
2023-04-28T03:56:26.377Z,96666.00
2023-04-28T03:58:53.554Z,96666.00
2023-04-28T04:01:20.725Z,96665.00
2023-04-28T04:03:48.111Z,96652.00
2023-04-28T04:06:15.583Z,96665.00
2023-04-28T04:08:43.043Z,96663.00
2023-04-28T04:11:10.310Z,96666.00
2023-04-28T04:13:37.478Z,96665.00
2023-04-28T04:16:04.967Z,96669.00
2023-04-28T04:18:32.175Z,96665.00
2023-04-28T04:20:59.466Z,96666.00
2023-04-28T04:23:26.678Z,96668.00
2023-04-28T04:25:53.874Z,96662.00
2023-04-28T04:28:21.297Z,96668.00
2023-04-28T04:30:48.483Z,96662.00
2023-04-28T04:33:15.678Z,96661.00
2023-04-28T04:35:43.044Z,96661.00
2023-04-28T04:38:10.450Z,96665.00
2023-04-28T04:40:37.669Z,96662.00
2023-04-28T04:43:04.855Z,96654.00
2023-04-28T04:45:33.658Z,96652.00
2023-04-28T04:48:00.859Z,96658.00
2023-04-28T04:50:28.113Z,96664.00
2023-04-28T04:52:57.299Z,96659.00
2023-04-28T04:55:24.709Z,96660.00
2023-04-28T04:57:52.296Z,96665.00
2023-04-28T05:00:19.839Z,96663.00
2023-04-28T05:02:47.164Z,96663.00
2023-04-28T05:05:21.166Z,96675.00
2023-04-28T05:07:49.453Z,96671.00
2023-04-28T05:10:16.790Z,96663.00
2023-04-28T05:12:45.611Z,96660.00
2023-04-28T05:15:14.791Z,96672.00
2023-04-28T05:17:42.032Z,96665.00
2023-04-28T05:20:11.609Z,96667.00
2023-04-28T05:22:39.984Z,96664.00
2023-04-28T05:25:07.861Z,96666.00
2023-04-28T05:27:37.766Z,96662.00
2023-04-28T05:30:07.544Z,96659.00
2023-04-28T05:32:35.938Z,96666.00
2023-04-28T05:35:03.382Z,96669.00
2023-04-28T05:37:30.571Z,96655.00
2023-04-28T05:39:57.818Z,96667.00
2023-04-28T05:42:25.025Z,96664.00
2023-04-28T05:44:52.199Z,96648.00
2023-04-28T05:47:19.392Z,96664.00
2023-04-28T05:49:46.551Z,96663.00
2023-04-28T05:52:13.769Z,96657.00
2023-04-28T05:54:40.950Z,96663.00
2023-04-28T05:57:08.245Z,96652.00
2023-04-28T05:59:35.517Z,96653.00
2023-04-28T06:02:02.761Z,96662.00
2023-04-28T06:04:30.203Z,96660.00
2023-04-28T06:06:57.685Z,96673.00
2023-04-28T06:09:24.908Z,96674.00
2023-04-28T06:11:52.189Z,96667.00
2023-04-28T06:14:19.587Z,96674.00
2023-04-28T06:16:46.943Z,96663.00
2023-04-28T06:19:15.286Z,96666.00
2023-04-28T06:21:42.465Z,96669.00
2023-04-28T06:24:09.659Z,96661.00
2023-04-28T06:26:36.866Z,96669.00
2023-04-28T06:29:04.329Z,96659.00
2023-04-28T06:31:31.672Z,96657.00
2023-04-28T06:33:58.866Z,96662.00
2023-04-28T06:36:26.378Z,96664.00
2023-04-28T06:38:53.734Z,96662.00
2023-04-28T06:41:21.276Z,96661.00
2023-04-28T06:43:48.462Z,96652.00
2023-04-28T06:46:15.966Z,96652.00
2023-04-28T06:48:43.397Z,96666.00
2023-04-28T06:51:10.613Z,96668.00
2023-04-28T06:53:38.015Z,96668.00
2023-04-28T06:56:05.461Z,96683.00
2023-04-28T06:58:32.719Z,96683.00
2023-04-28T07:00:59.937Z,96675.00
2023-04-28T07:03:27.952Z,96680.00
2023-04-28T07:05:55.269Z,96697.00
2023-04-28T07:08:22.569Z,96692.00
2023-04-28T07:10:49.730Z,96697.00
2023-04-28T07:13:16.996Z,96700.00
2023-04-28T07:15:44.185Z,96693.00
2023-04-28T07:18:11.434Z,96697.00
2023-04-28T07:20:38.628Z,96697.00
2023-04-28T07:23:05.830Z,96699.00
2023-04-28T07:25:33.116Z,96702.00
2023-04-28T07:28:02.582Z,96702.00
2023-04-28T07:30:29.877Z,96701.00
2023-04-28T07:32:57.310Z,96712.00
2023-04-28T07:35:24.858Z,96705.00
2023-04-28T07:37:52.420Z,96705.00
2023-04-28T07:40:20.282Z,96696.00
2023-04-28T07:42:47.934Z,96703.00
2023-04-28T07:45:16.154Z,96703.00
2023-04-28T07:47:43.394Z,96710.00
2023-04-28T07:50:12.091Z,96701.00
2023-04-28T07:52:39.648Z,96710.00
2023-04-28T07:55:07.086Z,96711.00
2023-04-28T07:57:34.432Z,96710.00
2023-04-28T08:00:01.734Z,96705.00
2023-04-28T08:02:29.075Z,96712.00
2023-04-28T08:04:56.795Z,96718.00
2023-04-28T08:07:24.669Z,96723.00
2023-04-28T08:09:53.714Z,96725.00
2023-04-28T08:12:21.888Z,96732.00
2023-04-28T08:14:49.104Z,96731.00
2023-04-28T08:17:17.545Z,96741.00
2023-04-28T08:19:46.290Z,96748.00
2023-04-28T08:22:13.647Z,96746.00
2023-04-28T08:24:41.028Z,96750.00
2023-04-28T08:27:08.210Z,96753.00
2023-04-28T08:29:35.433Z,96751.00
2023-04-28T08:32:02.650Z,96760.00
2023-04-28T08:34:29.865Z,96764.00
2023-04-28T08:36:57.087Z,96766.00
2023-04-28T08:39:26.389Z,96762.00
2023-04-28T08:41:53.979Z,96772.00
2023-04-28T08:44:23.486Z,96762.00
2023-04-28T08:46:50.888Z,96775.00
2023-04-28T08:49:19.563Z,96771.00
2023-04-28T08:52:13.439Z,96763.00
2023-04-28T08:55:03.721Z,96752.00
2023-04-28T08:58:01.400Z,96744.00
2023-04-28T09:00:40.292Z,96751.00
2023-04-28T09:03:20.810Z,96752.00
2023-04-28T09:06:21.698Z,96755.00
2023-04-28T09:09:20.058Z,96772.00
2023-04-28T09:12:20.349Z,96780.00
2023-04-28T09:14:59.107Z,96782.00
2023-04-28T09:17:32.920Z,96782.00
2023-04-28T09:27:15.508Z,96803.00
2023-04-28T09:30:31.282Z,96799.00
2023-04-28T09:33:22.055Z,96804.00
2023-04-28T09:37:20.872Z,96796.00
2023-04-28T09:40:11.752Z,96791.00
2023-04-28T09:43:21.288Z,96809.00
2023-04-28T09:45:49.547Z,96803.00
2023-04-28T09:48:16.369Z,96796.00
2023-04-28T09:50:43.199Z,96797.00
2023-04-28T09:53:13.152Z,96799.00
2023-04-28T09:55:45.593Z,96795.00
2023-04-28T09:58:14.027Z,96794.00
2023-04-28T10:00:41.933Z,96792.00
2023-04-28T10:03:10.034Z,96786.00
2023-04-28T10:05:40.684Z,96792.00
2023-04-28T10:08:08.187Z,96786.00
2023-04-28T10:10:35.394Z,96778.00
2023-04-28T10:13:02.958Z,96789.00
2023-04-28T10:15:30.251Z,96798.00
2023-04-28T10:17:58.307Z,96799.00
2023-04-28T10:20:27.261Z,96793.00
2023-04-28T10:23:42.433Z,96794.00
2023-04-28T10:26:12.597Z,96793.00
2023-04-28T10:28:49.173Z,96787.00
2023-04-28T10:31:21.438Z,96786.00
2023-04-28T10:33:49.671Z,96792.00
2023-04-28T10:36:51.183Z,96792.00
2023-04-28T10:39:18.556Z,96784.00
2023-04-28T10:41:47.725Z,96787.00
2023-04-28T10:44:30.093Z,96783.00
2023-04-28T10:47:04.604Z,96786.00
2023-04-28T10:50:01.191Z,96784.00
2023-04-28T10:52:39.624Z,96784.00
2023-04-28T10:55:39.899Z,96781.00
2023-04-28T10:58:16.246Z,96781.00
2023-04-28T11:00:52.625Z,96781.00
2023-04-28T11:04:13.384Z,96772.00
2023-04-28T11:06:42.037Z,96778.00
2023-04-28T11:09:15.084Z,96773.00
2023-04-28T11:12:00.157Z,96776.00
2023-04-28T11:14:30.084Z,96777.00
2023-04-28T11:17:05.764Z,96775.00
2023-04-28T11:19:38.939Z,96776.00
2023-04-28T11:22:20.423Z,96774.00
2023-04-28T11:24:58.321Z,96770.00
2023-04-28T11:27:33.263Z,96767.00
2023-04-28T11:30:01.443Z,96758.00
2023-04-28T11:32:33.998Z,96758.00
2023-04-28T11:35:01.193Z,96761.00
2023-04-28T11:37:28.031Z,96761.00
2023-04-28T11:39:54.920Z,96755.00
2023-04-28T11:42:21.756Z,96744.00
2023-04-28T11:44:53.504Z,96743.00
2023-04-28T11:47:32.545Z,96733.00
2023-04-28T11:49:59.846Z,96740.00
2023-04-28T11:52:27.413Z,96727.00
2023-04-28T11:55:00.207Z,96732.00
2023-04-28T11:57:27.825Z,96726.00
2023-04-28T12:00:12.023Z,96711.00
2023-04-28T12:02:39.649Z,96706.00
2023-04-28T12:05:07.870Z,96709.00
2023-04-28T12:07:45.167Z,96706.00
2023-04-28T12:10:16.729Z,96709.00
2023-04-28T12:12:51.153Z,96705.00
2023-04-28T12:15:21.918Z,96698.00
2023-04-28T12:17:50.604Z,96696.00
2023-04-28T12:20:38.086Z,96699.00
2023-04-28T12:23:06.099Z,96703.00
2023-04-28T12:25:34.929Z,96700.00
2023-04-28T12:28:08.183Z,96696.00
2023-04-28T12:30:42.480Z,96701.00
2023-04-28T12:33:27.015Z,96703.00
2023-04-28T12:35:55.884Z,96705.00
2023-04-28T12:38:23.976Z,96696.00
2023-04-28T12:40:50.869Z,96694.00
2023-04-28T12:43:17.676Z,96697.00
2023-04-28T12:45:44.554Z,96684.00
2023-04-28T12:48:11.390Z,96694.00
2023-04-28T12:50:38.249Z,96683.00
2023-04-28T12:53:05.183Z,96681.00
2023-04-28T12:55:32.032Z,96675.00
2023-04-28T12:57:59.386Z,96681.00
2023-04-28T13:00:26.422Z,96687.00
2023-04-28T13:02:53.431Z,96672.00
2023-04-28T13:05:20.350Z,96687.00
2023-04-28T13:07:47.663Z,96682.00
2023-04-28T13:10:14.524Z,96667.00
2023-04-28T13:12:41.630Z,96667.00
2023-04-28T13:15:09.426Z,96665.00
2023-04-28T13:17:36.240Z,96673.00
2023-04-28T13:20:05.251Z,96661.00
2023-04-28T13:22:32.281Z,96650.00
2023-04-28T13:24:59.152Z,96651.00
2023-04-28T13:27:25.948Z,96638.00
2023-04-28T13:29:52.716Z,96640.00
2023-04-28T13:32:19.682Z,96651.00
2023-04-28T13:34:47.055Z,96653.00
2023-04-28T13:37:14.110Z,96653.00
2023-04-28T13:39:41.057Z,96645.00
2023-04-28T13:42:08.023Z,96635.00
2023-04-28T13:44:34.994Z,96633.00
2023-04-28T13:47:02.097Z,96631.00
2023-04-28T13:49:29.210Z,96636.00
2023-04-28T13:51:56.385Z,96628.00
2023-04-28T13:54:23.186Z,96619.00
2023-04-28T13:56:50.665Z,96628.00
2023-04-28T13:59:17.697Z,96627.00
2023-04-28T14:01:44.510Z,96629.00
2023-04-28T14:04:11.680Z,96632.00
2023-04-28T14:06:38.686Z,96633.00
2023-04-28T14:09:06.318Z,96633.00
2023-04-28T14:11:33.080Z,96635.00
2023-04-28T14:13:59.949Z,96635.00
2023-04-28T14:16:27.482Z,96627.00
2023-04-28T14:18:54.232Z,96625.00
2023-04-28T14:21:21.033Z,96624.00
2023-04-28T14:23:48.018Z,96614.00
2023-04-28T14:26:14.878Z,96616.00
2023-04-28T14:28:42.201Z,96609.00
2023-04-28T14:31:09.292Z,96605.00
2023-04-28T14:33:36.812Z,96608.00
2023-04-28T14:36:04.028Z,96610.00
2023-04-28T14:38:31.131Z,96596.00
2023-04-28T14:40:58.219Z,96594.00
2023-04-28T14:43:25.070Z,96601.00
2023-04-28T14:45:52.417Z,96602.00
2023-04-28T14:48:20.035Z,96598.00
2023-04-28T14:50:46.883Z,96600.00
2023-04-28T14:53:13.690Z,96596.00
2023-04-28T14:55:40.470Z,96599.00
2023-04-28T14:58:07.442Z,96592.00
2023-04-28T15:00:36.080Z,96595.00
2023-04-28T15:03:03.059Z,96609.00
2023-04-28T15:05:30.001Z,96598.00
2023-04-28T15:07:56.943Z,96602.00
2023-04-28T15:10:23.878Z,96597.00
2023-04-28T15:12:50.849Z,96593.00
2023-04-28T15:15:17.662Z,96592.00
2023-04-28T15:17:45.328Z,96584.00
2023-04-28T15:20:12.294Z,96586.00
2023-04-28T15:22:39.128Z,96584.00
2023-04-28T15:25:07.338Z,96593.00
2023-04-28T15:27:34.094Z,96570.00
2023-04-28T15:30:01.406Z,96565.00
2023-04-28T15:32:30.315Z,96578.00
2023-04-28T15:34:57.623Z,96572.00
2023-04-28T15:37:42.737Z,96579.00
2023-04-28T15:40:13.138Z,96571.00
2023-04-28T15:42:42.357Z,96564.00
2023-04-28T15:45:13.266Z,96562.00
2023-04-28T15:47:40.589Z,96561.00
2023-04-28T15:50:10.490Z,96560.00
2023-04-28T15:52:47.321Z,96564.00
2023-04-28T15:55:15.793Z,96554.00
2023-04-28T15:57:43.384Z,96572.00
2023-04-28T16:00:11.486Z,96565.00
2023-04-28T16:02:39.161Z,96572.00
2023-04-28T16:05:07.185Z,96577.00
2023-04-28T16:07:41.032Z,96566.00
2023-04-28T16:10:16.467Z,96563.00
2023-04-28T16:12:43.528Z,96559.00
2023-04-28T16:15:13.017Z,96553.00
2023-04-28T16:17:41.052Z,96557.00
2023-04-28T16:20:10.135Z,96558.00
2023-04-28T16:22:37.610Z,96557.00
2023-04-28T16:25:05.276Z,96559.00
2023-04-28T16:27:32.865Z,96559.00
2023-04-28T16:30:00.291Z,96569.00
2023-04-28T16:32:27.263Z,96568.00
2023-04-28T16:34:58.294Z,96576.00
2023-04-28T16:37:25.747Z,96573.00
2023-04-28T16:39:52.931Z,96577.00
2023-04-28T16:42:22.715Z,96573.00
2023-04-28T16:44:52.468Z,96573.00
2023-04-28T16:47:20.251Z,96582.00
2023-04-28T16:49:47.410Z,96577.00
2023-04-28T16:52:14.381Z,96577.00
2023-04-28T16:54:41.604Z,96571.00
2023-04-28T16:57:08.440Z,96571.00
2023-04-28T16:59:35.286Z,96576.00
2023-04-28T17:02:03.910Z,96580.00
2023-04-28T17:04:31.351Z,96571.00
2023-04-28T17:06:58.787Z,96574.00
2023-04-28T17:09:27.426Z,96577.00
2023-04-28T17:11:54.984Z,96576.00
2023-04-28T17:14:21.962Z,96565.00
2023-04-28T17:16:48.776Z,96559.00
2023-04-28T17:19:16.680Z,96567.00
2023-04-28T17:21:43.540Z,96561.00
2023-04-28T17:24:10.341Z,96561.00
2023-04-28T17:26:37.306Z,96566.00
2023-04-28T17:29:04.741Z,96555.00
2023-04-28T17:31:31.648Z,96561.00
2023-04-28T17:34:00.421Z,96566.00
2023-04-28T17:36:28.480Z,96564.00
2023-04-28T17:38:56.040Z,96564.00
2023-04-28T17:41:23.125Z,96563.00
2023-04-28T17:43:53.516Z,96579.00
2023-04-28T17:46:21.845Z,96575.00
2023-04-28T17:48:49.134Z,96589.00
2023-04-28T17:51:15.961Z,96590.00
2023-04-28T17:53:43.182Z,96583.00
2023-04-28T17:56:10.050Z,96586.00
2023-04-28T17:58:37.255Z,96597.00
2023-04-28T18:01:06.565Z,96590.00
2023-04-28T18:03:38.722Z,96588.00
2023-04-28T18:06:07.866Z,96596.00
2023-04-28T18:08:36.605Z,96598.00
2023-04-28T18:11:03.703Z,96602.00
2023-04-28T18:13:30.931Z,96605.00
2023-04-28T18:15:57.796Z,96610.00
2023-04-28T18:20:58.418Z,96603.00
2023-04-28T18:23:26.547Z,96616.00
2023-04-28T18:25:53.363Z,96628.00
2023-04-28T18:28:20.194Z,96618.00
2023-04-28T18:30:46.980Z,96623.00
2023-04-28T18:33:13.810Z,96622.00
2023-04-28T18:35:40.705Z,96631.00
2023-04-28T18:38:07.518Z,96631.00
2023-04-28T18:40:37.496Z,96629.00
2023-04-28T18:43:05.926Z,96639.00
2023-04-28T18:45:35.661Z,96630.00
2023-04-28T18:48:03.673Z,96629.00
2023-04-28T18:50:32.688Z,96635.00
2023-04-28T18:53:04.955Z,96637.00
2023-04-28T18:55:34.899Z,96647.00
2023-04-28T18:58:02.210Z,96644.00
2023-04-28T19:00:29.537Z,96644.00
2023-04-28T19:02:56.633Z,96649.00
2023-04-28T19:05:23.840Z,96668.00
2023-04-28T19:07:50.702Z,96662.00
2023-04-28T19:10:17.592Z,96662.00
2023-04-28T19:12:44.379Z,96666.00
2023-04-28T19:15:11.188Z,96678.00
2023-04-28T19:17:38.140Z,96664.00
2023-04-28T19:20:05.861Z,96672.00
2023-04-28T19:22:36.103Z,96664.00
2023-04-28T19:25:04.447Z,96679.00
2023-04-28T19:27:33.776Z,96686.00
2023-04-28T19:30:02.620Z,96697.00
2023-04-28T19:32:29.847Z,96682.00
2023-04-28T19:34:56.804Z,96686.00
2023-04-28T19:37:23.888Z,96681.00
2023-04-28T19:39:51.296Z,96685.00
2023-04-28T19:42:18.489Z,96680.00
2023-04-28T19:44:46.700Z,96697.00
2023-04-28T19:47:13.514Z,96688.00
2023-04-28T19:49:43.419Z,96691.00
2023-04-28T19:52:10.334Z,96695.00
2023-04-28T19:54:38.737Z,96692.00
2023-04-28T19:57:05.634Z,96693.00
2023-04-28T19:59:32.444Z,96704.00
2023-04-28T20:01:59.631Z,96698.00
2023-04-28T20:04:29.166Z,96701.00
2023-04-28T20:06:56.232Z,96704.00
2023-04-28T20:09:23.058Z,96697.00
2023-04-28T20:11:49.897Z,96701.00
2023-04-28T20:14:16.652Z,96696.00
2023-04-28T20:16:44.467Z,96699.00
2023-04-28T20:19:11.321Z,96702.00
2023-04-28T20:21:39.421Z,96706.00
2023-04-28T20:24:07.030Z,96712.00
2023-04-28T20:26:34.445Z,96712.00
2023-04-28T20:29:01.206Z,96713.00
2023-04-28T20:31:28.072Z,96716.00
2023-04-28T20:33:54.984Z,96710.00
2023-04-28T20:36:21.731Z,96708.00
2023-04-28T20:38:49.059Z,96701.00
2023-04-28T20:41:16.233Z,96704.00
2023-04-28T20:43:43.083Z,96699.00
2023-04-28T20:46:10.647Z,96700.00
2023-04-28T20:48:37.446Z,96698.00
2023-04-28T20:51:05.075Z,96697.00
2023-04-28T20:53:33.100Z,96695.00
2023-04-28T20:55:59.968Z,96712.00
2023-04-28T20:58:27.875Z,96714.00
2023-04-28T21:00:54.753Z,96707.00
2023-04-28T21:03:23.585Z,96719.00
2023-04-28T21:05:50.649Z,96718.00
2023-04-28T21:08:17.525Z,96723.00
2023-04-28T21:10:44.331Z,96709.00
2023-04-28T21:13:12.042Z,96720.00
2023-04-28T21:15:42.056Z,96724.00
2023-04-28T21:18:08.872Z,96723.00
2023-04-28T21:20:35.719Z,96730.00
2023-04-28T21:23:02.702Z,96739.00
2023-04-28T21:25:29.484Z,96723.00
2023-04-28T21:27:56.413Z,96725.00
2023-04-28T21:30:23.260Z,96744.00
2023-04-28T21:32:50.286Z,96735.00
2023-04-28T21:35:17.144Z,96733.00
2023-04-28T21:37:43.932Z,96730.00
2023-04-28T21:40:11.417Z,96727.00
2023-04-28T21:42:38.239Z,96735.00
2023-04-28T21:45:07.309Z,96739.00
2023-04-28T21:47:34.174Z,96733.00
2023-04-28T21:50:00.964Z,96718.00
2023-04-28T21:52:27.767Z,96717.00
2023-04-28T21:54:54.527Z,96713.00
2023-04-28T21:57:21.321Z,96709.00
2023-04-28T21:59:48.594Z,96718.00
2023-04-28T22:02:15.674Z,96709.00
2023-04-28T22:04:43.344Z,96705.00
2023-04-28T22:07:10.706Z,96711.00
2023-04-28T22:09:37.695Z,96702.00
2023-04-28T22:12:04.617Z,96697.00
2023-04-28T22:17:01.273Z,96692.00
2023-04-28T22:19:28.082Z,96689.00
2023-04-28T22:21:54.902Z,96693.00
2023-04-28T22:24:21.635Z,96700.00
2023-04-28T22:26:48.601Z,96704.00
2023-04-28T22:29:15.398Z,96710.00
2023-04-28T22:31:42.455Z,96710.00
2023-04-28T22:34:10.301Z,96720.00
2023-04-28T22:36:37.529Z,96720.00
2023-04-28T22:39:05.609Z,96718.00
2023-04-28T22:41:32.404Z,96722.00
2023-04-28T22:43:59.229Z,96724.00
2023-04-28T22:46:26.257Z,96726.00
2023-04-28T22:48:53.110Z,96725.00
2023-04-28T22:51:20.314Z,96723.00
2023-04-28T22:53:48.335Z,96719.00
2023-04-28T22:56:15.767Z,96722.00
2023-04-28T22:58:42.579Z,96716.00
2023-04-28T23:01:09.568Z,96733.00
2023-04-28T23:03:38.253Z,96724.00
2023-04-28T23:06:05.377Z,96723.00
2023-04-28T23:08:32.244Z,96717.00
2023-04-28T23:10:59.061Z,96722.00
2023-04-28T23:13:26.274Z,96718.00
2023-04-28T23:15:53.184Z,96720.00
2023-04-28T23:18:20.005Z,96730.00
2023-04-28T23:20:50.037Z,96724.00
2023-04-28T23:23:16.917Z,96724.00
2023-04-28T23:25:43.906Z,96731.00
2023-04-28T23:28:10.707Z,96724.00
2023-04-28T23:30:37.732Z,96727.00
2023-04-28T23:33:05.009Z,96728.00
2023-04-28T23:35:33.110Z,96730.00
2023-04-28T23:37:59.861Z,96726.00
2023-04-28T23:40:26.886Z,96725.00
2023-04-28T23:42:54.062Z,96723.00
2023-04-28T23:45:20.848Z,96722.00
2023-04-28T23:47:47.896Z,96721.00
2023-04-28T23:50:14.883Z,96727.00
2023-04-28T23:52:41.613Z,96717.00
2023-04-28T23:55:13.133Z,96723.00
2023-04-28T23:57:40.351Z,96719.00
